Terminal Aerodrome Forecast
Issued by NWS

Home | Current Version | Previous Version | Text Only | Print | Product List | Glossary On
Versions: 1 2 3 4 5 6 7 8 9 10 11 12 13 14 15
000
FTUS46 KMFR 290547
TAFRBG
TAF
KRBG 290547Z 2906/3006 00000KT P6SM SKC
     FM291300 00000KT P6SM FEW020
     FM291400 00000KT P6SM SCT020
     FM291600 35006KT P6SM SKC=

USA.gov is the U.S. government's official web portal to all federal, state and local government web resources and services.